createdAt,value
2023-04-14T00:01:17.345Z,9.71
2023-04-14T00:03:46.189Z,9.74
2023-04-14T00:06:14.983Z,9.74
2023-04-14T00:08:43.674Z,9.71
2023-04-14T00:11:13.610Z,9.67
2023-04-14T00:13:41.849Z,9.65
2023-04-14T00:16:10.154Z,9.64
2023-04-14T00:18:38.527Z,9.62
2023-04-14T00:21:06.789Z,9.59
2023-04-14T00:23:35.243Z,9.56
2023-04-14T00:26:03.769Z,9.48
2023-04-14T00:28:33.877Z,9.46
2023-04-14T00:31:02.563Z,9.47
2023-04-14T00:33:31.060Z,9.48
2023-04-14T00:35:59.599Z,9.49
2023-04-14T00:38:28.290Z,9.51
2023-04-14T00:40:56.616Z,9.55
2023-04-14T00:43:25.003Z,9.54
2023-04-14T00:45:55.991Z,9.38
2023-04-14T00:48:24.630Z,9.34
2023-04-14T00:50:53.312Z,9.33
2023-04-14T00:53:21.974Z,9.34
2023-04-14T00:55:50.376Z,9.27
2023-04-14T00:58:18.661Z,9.18
2023-04-14T01:00:52.728Z,9.13
2023-04-14T01:03:23.656Z,9.10
2023-04-14T01:05:52.288Z,9.02
2023-04-14T01:08:22.199Z,8.96
2023-04-14T01:11:03.609Z,8.97
2023-04-14T01:13:41.185Z,8.97
2023-04-14T01:16:19.662Z,9.03
2023-04-14T01:19:00.295Z,9.10
2023-04-14T01:21:34.583Z,9.18
2023-04-14T01:24:25.627Z,9.30
2023-04-14T01:27:04.943Z,9.40
2023-04-14T01:29:56.906Z,9.46
2023-04-14T01:32:28.710Z,9.53
2023-04-14T01:34:59.116Z,9.59
2023-04-14T01:37:31.521Z,9.66
2023-04-14T01:40:06.404Z,9.68
2023-04-14T01:42:37.912Z,9.71
2023-04-14T01:45:13.288Z,9.71
2023-04-14T01:47:44.552Z,9.70
2023-04-14T01:50:14.726Z,9.66
2023-04-14T01:52:47.812Z,9.60
2023-04-14T01:55:19.117Z,9.54
2023-04-14T01:57:50.072Z,9.43
2023-04-14T02:00:20.172Z,9.36
2023-04-14T02:02:52.769Z,9.39
2023-04-14T02:05:23.829Z,9.38
2023-04-14T02:07:54.665Z,9.30
2023-04-14T02:10:24.944Z,9.17
2023-04-14T02:12:56.849Z,9.14
2023-04-14T02:15:28.843Z,9.12
2023-04-14T02:17:59.182Z,9.14
2023-04-14T02:20:29.937Z,9.20
2023-04-14T02:22:58.568Z,9.26
2023-04-14T02:25:30.969Z,9.34
2023-04-14T02:28:02.228Z,9.39
2023-04-14T02:30:33.611Z,9.40
2023-04-14T02:33:06.881Z,9.42
2023-04-14T02:35:40.576Z,9.40
2023-04-14T02:38:23.311Z,9.34
2023-04-14T02:40:52.425Z,9.26
2023-04-14T02:43:28.091Z,9.24
2023-04-14T02:45:58.090Z,9.17
2023-04-14T02:48:29.879Z,9.09
2023-04-14T02:51:00.390Z,9.02
2023-04-14T02:53:29.257Z,8.89
2023-04-14T02:55:58.543Z,8.81
2023-04-14T02:58:29.296Z,8.72
2023-04-14T03:00:59.454Z,8.61
2023-04-14T03:03:30.771Z,8.53
2023-04-14T03:05:59.762Z,8.47
2023-04-14T03:08:29.117Z,8.40
2023-04-14T03:10:59.129Z,8.36
2023-04-14T03:13:30.080Z,8.32
2023-04-14T03:16:00.194Z,8.29
2023-04-14T03:18:32.510Z,8.29
2023-04-14T03:21:02.992Z,8.27
2023-04-14T03:23:33.051Z,8.19
2023-04-14T03:26:03.485Z,8.14
2023-04-14T03:28:36.242Z,8.08
2023-04-14T03:31:08.018Z,8.09
2023-04-14T03:33:39.655Z,8.08
2023-04-14T03:36:09.056Z,8.05
2023-04-14T03:38:39.376Z,8.05
2023-04-14T03:41:09.946Z,8.00
2023-04-14T03:43:39.322Z,7.98
2023-04-14T03:46:07.907Z,7.94
2023-04-14T03:48:42.797Z,7.95
2023-04-14T03:51:14.418Z,8.01
2023-04-14T03:53:46.481Z,8.04
2023-04-14T03:56:15.587Z,8.04
2023-04-14T03:58:47.552Z,8.07
2023-04-14T04:01:16.844Z,8.11
2023-04-14T04:03:48.951Z,8.17
2023-04-14T04:06:18.468Z,8.21
2023-04-14T04:08:49.455Z,8.22
2023-04-14T04:11:21.222Z,8.22
2023-04-14T04:13:51.215Z,8.20
2023-04-14T04:16:21.976Z,8.13
2023-04-14T04:18:52.943Z,8.06
2023-04-14T04:21:22.721Z,8.02
2023-04-14T04:23:56.596Z,8.02
2023-04-14T04:26:25.994Z,7.99
2023-04-14T04:28:57.629Z,7.98
2023-04-14T04:31:26.614Z,7.97
2023-04-14T04:33:57.786Z,7.99
2023-04-14T04:36:27.998Z,8.02
2023-04-14T04:38:58.704Z,8.08
2023-04-14T04:41:28.794Z,8.14
2023-04-14T04:43:57.944Z,8.20
2023-04-14T04:46:47.928Z,8.18
2023-04-14T04:49:17.748Z,8.13
2023-04-14T04:51:46.657Z,8.06
2023-04-14T04:54:14.953Z,7.97
2023-04-14T04:56:43.156Z,7.86
2023-04-14T04:59:13.012Z,7.77
2023-04-14T05:01:41.344Z,7.74
2023-04-14T05:04:10.145Z,7.75
2023-04-14T05:06:40.073Z,7.86
2023-04-14T05:09:09.244Z,8.00
2023-04-14T05:11:38.219Z,8.16
2023-04-14T05:14:06.656Z,8.30
2023-04-14T05:16:35.475Z,8.42
2023-04-14T05:19:04.131Z,8.53
2023-04-14T05:21:33.363Z,8.60
2023-04-14T05:24:03.818Z,8.59
2023-04-14T05:26:51.770Z,8.68
2023-04-14T05:29:20.993Z,8.66
2023-04-14T05:31:49.680Z,8.62
2023-04-14T05:34:18.246Z,8.60
2023-04-14T05:36:46.362Z,8.59
2023-04-14T05:39:16.508Z,8.63
2023-04-14T05:41:44.964Z,8.65
2023-04-14T05:44:13.427Z,8.69
2023-04-14T05:46:41.814Z,8.72
2023-04-14T05:49:10.835Z,8.73
2023-04-14T05:51:39.886Z,8.71
2023-04-14T05:54:08.352Z,8.68
2023-04-14T05:56:38.935Z,8.66
2023-04-14T05:59:07.642Z,8.70
2023-04-14T06:01:36.148Z,8.75
2023-04-14T06:04:05.068Z,8.81
2023-04-14T06:06:33.755Z,8.87
2023-04-14T06:09:02.110Z,8.93
2023-04-14T06:11:31.166Z,9.02
2023-04-14T06:14:03.080Z,9.07
2023-04-14T06:16:31.728Z,9.16
2023-04-14T06:19:01.080Z,9.25
2023-04-14T06:21:29.786Z,9.32
2023-04-14T06:23:58.127Z,9.43
2023-04-14T06:26:27.161Z,9.57
2023-04-14T06:28:55.442Z,9.71
2023-04-14T06:31:25.398Z,9.82
2023-04-14T06:33:53.935Z,9.82
2023-04-14T06:36:22.399Z,9.79
2023-04-14T06:38:51.053Z,9.83
2023-04-14T06:41:19.257Z,9.83
2023-04-14T06:43:47.799Z,9.90
2023-04-14T06:46:16.842Z,9.93
2023-04-14T06:48:46.977Z,10.02
2023-04-14T06:51:15.818Z,10.11
2023-04-14T06:53:44.458Z,10.24
2023-04-14T06:56:13.266Z,10.40
2023-04-14T06:58:41.942Z,10.58
2023-04-14T07:01:10.506Z,10.66
2023-04-14T07:03:40.788Z,10.69
2023-04-14T07:06:12.902Z,10.82
2023-04-14T07:08:41.514Z,10.96
2023-04-14T07:11:11.496Z,11.05
2023-04-14T07:13:41.634Z,11.15
2023-04-14T07:16:10.313Z,12.24
2023-04-14T07:18:38.997Z,13.89
2023-04-14T07:21:07.346Z,15.62
2023-04-14T07:23:37.741Z,16.96
2023-04-14T07:26:06.399Z,18.07
2023-04-14T07:28:34.869Z,19.15
2023-04-14T07:31:09.516Z,19.93
2023-04-14T07:33:38.225Z,20.69
2023-04-14T07:36:07.449Z,20.72
2023-04-14T07:38:37.486Z,19.96
2023-04-14T07:41:07.014Z,19.04
2023-04-14T07:43:36.336Z,18.13
2023-04-14T07:46:06.010Z,17.91
2023-04-14T07:48:35.066Z,17.96
2023-04-14T07:51:04.699Z,17.90
2023-04-14T07:53:33.396Z,17.64
2023-04-14T07:56:03.134Z,17.18
2023-04-14T07:58:31.383Z,16.46
2023-04-14T08:00:59.825Z,15.76
2023-04-14T08:03:28.643Z,14.90
2023-04-14T08:05:58.611Z,14.22
2023-04-14T08:08:27.153Z,13.78
2023-04-14T08:10:55.610Z,13.85
2023-04-14T08:13:25.642Z,14.05
2023-04-14T08:15:56.038Z,14.88
2023-04-14T08:18:24.859Z,16.22
2023-04-14T08:20:53.296Z,18.41
2023-04-14T08:23:23.262Z,20.64
2023-04-14T08:25:51.677Z,22.96
2023-04-14T08:28:19.772Z,24.98
2023-04-14T08:30:49.612Z,26.30
2023-04-14T08:33:17.995Z,27.24
2023-04-14T08:35:46.116Z,27.86
2023-04-14T08:38:25.313Z,28.44
2023-04-14T08:40:57.225Z,28.78
2023-04-14T08:43:25.781Z,28.97
2023-04-14T08:45:56.495Z,29.45
2023-04-14T08:48:30.704Z,30.10
2023-04-14T08:51:08.077Z,30.33
2023-04-14T08:53:43.013Z,31.38
2023-04-14T08:56:13.446Z,32.42
2023-04-14T08:58:43.273Z,32.51
2023-04-14T09:01:13.475Z,32.65
2023-04-14T09:03:42.762Z,32.69
2023-04-14T09:06:11.486Z,32.17
2023-04-14T09:08:40.062Z,32.34
2023-04-14T09:11:08.707Z,32.76
2023-04-14T09:13:38.655Z,33.40
2023-04-14T09:16:08.509Z,34.19
2023-04-14T09:18:38.107Z,35.53
2023-04-14T09:21:29.968Z,36.25
2023-04-14T09:23:56.855Z,37.01
2023-04-14T09:26:26.124Z,37.90
2023-04-14T09:28:54.209Z,38.61
2023-04-14T09:31:22.314Z,39.23
2023-04-14T09:33:51.950Z,39.53
2023-04-14T09:36:21.012Z,38.65
2023-04-14T09:38:50.765Z,37.98
2023-04-14T09:41:19.885Z,38.78
2023-04-14T09:43:48.006Z,39.85
2023-04-14T09:46:16.769Z,41.13
2023-04-14T09:48:56.907Z,41.95
2023-04-14T09:51:29.643Z,43.01
2023-04-14T09:54:03.105Z,43.67
2023-04-14T09:56:31.383Z,44.13
2023-04-14T09:59:01.226Z,44.87
2023-04-14T10:01:32.772Z,45.82
2023-04-14T10:04:03.320Z,46.75
2023-04-14T10:06:32.384Z,47.15
2023-04-14T10:09:00.819Z,47.42
2023-04-14T10:11:30.856Z,47.41
2023-04-14T10:14:00.568Z,46.82
2023-04-14T10:16:28.887Z,47.05
2023-04-14T10:18:58.540Z,48.07
2023-04-14T10:21:29.430Z,48.81
2023-04-14T10:23:58.195Z,47.94
2023-04-14T10:26:26.810Z,47.88
2023-04-14T10:28:56.871Z,47.94
2023-04-14T10:31:28.769Z,48.53
2023-04-14T10:33:57.103Z,48.66
2023-04-14T10:36:26.338Z,48.26
2023-04-14T10:39:02.637Z,48.12
2023-04-14T10:41:46.548Z,47.44
2023-04-14T10:44:28.962Z,46.13
2023-04-14T10:46:57.373Z,45.26
2023-04-14T10:49:32.903Z,43.95
2023-04-14T10:52:02.581Z,42.60
2023-04-14T10:54:49.838Z,41.54
2023-04-14T10:57:18.961Z,39.55
2023-04-14T10:59:48.141Z,36.29
2023-04-14T11:02:26.712Z,33.33
2023-04-14T11:05:06.038Z,30.95
2023-04-14T11:07:40.617Z,28.99
2023-04-14T11:10:33.308Z,27.27
2023-04-14T11:13:07.572Z,25.35
2023-04-14T11:15:50.521Z,24.27
2023-04-14T11:18:21.915Z,23.61
2023-04-14T11:20:53.864Z,22.97
2023-04-14T11:23:29.295Z,22.52
2023-04-14T11:25:59.270Z,22.06
2023-04-14T11:28:30.982Z,21.68
2023-04-14T11:30:59.679Z,21.42
2023-04-14T11:33:31.408Z,21.27
2023-04-14T11:36:00.063Z,21.23
2023-04-14T11:38:28.644Z,21.16
2023-04-14T11:40:58.443Z,21.14
2023-04-14T11:43:26.483Z,21.12
2023-04-14T11:45:54.835Z,21.03
2023-04-14T11:48:23.065Z,20.68
2023-04-14T11:50:52.223Z,20.32
2023-04-14T11:53:21.290Z,20.12
2023-04-14T11:55:50.928Z,19.90
2023-04-14T11:58:24.612Z,19.81
2023-04-14T12:00:55.654Z,19.68
2023-04-14T12:03:27.951Z,19.46
2023-04-14T12:05:58.511Z,19.41
2023-04-14T12:08:27.153Z,19.44
2023-04-14T12:10:56.632Z,19.53
2023-04-14T12:13:26.552Z,19.61
2023-04-14T12:15:55.466Z,19.68
2023-04-14T12:18:23.829Z,19.73
2023-04-14T12:20:54.909Z,19.78
2023-04-14T12:23:23.777Z,19.81
2023-04-14T12:25:52.789Z,19.78
2023-04-14T12:28:25.739Z,19.77
2023-04-14T12:30:59.560Z,19.75
2023-04-14T12:33:28.588Z,19.62
2023-04-14T12:36:02.859Z,19.47
2023-04-14T12:38:30.971Z,19.49
2023-04-14T12:40:59.852Z,19.53
2023-04-14T12:43:32.444Z,19.54
2023-04-14T12:46:03.865Z,19.41
2023-04-14T12:48:44.437Z,19.31
2023-04-14T12:51:14.583Z,19.21
2023-04-14T12:53:44.159Z,19.26
2023-04-14T12:56:14.121Z,19.26
2023-04-14T12:58:44.035Z,19.22
2023-04-14T13:01:14.495Z,19.22
2023-04-14T13:03:47.393Z,19.25
2023-04-14T13:06:18.055Z,19.26
2023-04-14T13:08:47.548Z,19.25
2023-04-14T13:11:17.505Z,19.31
2023-04-14T13:13:45.748Z,19.38
2023-04-14T13:16:17.850Z,19.48
2023-04-14T13:18:48.087Z,19.54
2023-04-14T13:21:16.697Z,19.52
2023-04-14T13:23:45.092Z,19.60
2023-04-14T13:26:13.951Z,19.70
2023-04-14T13:28:42.263Z,19.73
2023-04-14T13:31:13.138Z,19.76
2023-04-14T13:33:43.166Z,19.77
2023-04-14T13:36:11.450Z,19.78
2023-04-14T13:38:39.695Z,19.87
2023-04-14T13:41:08.373Z,19.96
2023-04-14T13:43:36.796Z,19.96
2023-04-14T13:46:05.355Z,19.98
2023-04-14T13:48:33.532Z,19.96
2023-04-14T13:51:03.182Z,19.96
2023-04-14T13:53:31.493Z,19.93
2023-04-14T13:55:59.773Z,19.81
2023-04-14T13:58:27.988Z,19.74
2023-04-14T14:00:56.972Z,19.79
2023-04-14T14:03:28.442Z,19.78
2023-04-14T14:05:58.048Z,19.72
2023-04-14T14:08:27.476Z,19.69
2023-04-14T14:10:55.734Z,19.66
2023-04-14T14:13:23.951Z,19.69
2023-04-14T14:15:52.351Z,19.77
2023-04-14T14:18:20.998Z,19.88
2023-04-14T14:20:49.972Z,19.92
2023-04-14T14:23:18.658Z,19.84
2023-04-14T14:25:48.941Z,19.77
2023-04-14T14:28:17.573Z,19.76
2023-04-14T14:30:46.436Z,19.91
2023-04-14T14:33:14.896Z,20.01
2023-04-14T14:35:43.431Z,19.99
2023-04-14T14:38:12.410Z,20.00
2023-04-14T14:40:41.214Z,19.98
2023-04-14T14:43:11.450Z,19.88
2023-04-14T14:45:39.855Z,19.79
2023-04-14T14:48:09.725Z,19.70
2023-04-14T14:50:38.279Z,19.61
2023-04-14T14:53:07.519Z,19.49
2023-04-14T14:55:35.934Z,19.31
2023-04-14T14:58:06.626Z,19.19
2023-04-14T15:00:36.630Z,19.15
2023-04-14T15:03:05.700Z,19.11
2023-04-14T15:05:35.294Z,19.14
2023-04-14T15:08:04.017Z,19.19
2023-04-14T15:10:32.363Z,19.23
2023-04-14T15:13:00.422Z,19.21
2023-04-14T15:15:29.290Z,19.21
2023-04-14T15:17:59.237Z,19.09
2023-04-14T15:20:27.812Z,18.91
2023-04-14T15:22:56.343Z,18.84
2023-04-14T15:25:24.886Z,18.78
2023-04-14T15:27:53.144Z,18.71
2023-04-14T15:30:24.028Z,18.60
2023-04-14T15:32:52.439Z,18.54
2023-04-14T15:35:23.311Z,18.46
2023-04-14T15:37:51.559Z,18.32
2023-04-14T15:40:20.457Z,18.25
2023-04-14T15:42:48.616Z,18.25
2023-04-14T15:45:17.136Z,18.21
2023-04-14T15:47:46.289Z,18.23
2023-04-14T15:50:18.878Z,18.13
2023-04-14T15:52:49.994Z,18.06
2023-04-14T15:55:18.089Z,18.03
2023-04-14T15:57:46.988Z,17.94
2023-04-14T16:00:16.136Z,17.76
2023-04-14T16:02:46.175Z,17.53
2023-04-14T16:05:14.605Z,17.49
2023-04-14T16:07:44.301Z,17.35
2023-04-14T16:10:14.590Z,17.17
2023-04-14T16:12:43.596Z,17.14
2023-04-14T16:15:12.677Z,17.16
2023-04-14T16:17:42.350Z,17.13
2023-04-14T16:20:11.987Z,17.16
2023-04-14T16:22:40.883Z,17.17
2023-04-14T16:25:10.291Z,17.20
2023-04-14T16:27:40.028Z,17.23
2023-04-14T16:30:10.148Z,17.18
2023-04-14T16:32:38.477Z,17.19
2023-04-14T16:35:08.244Z,17.24
2023-04-14T16:37:36.411Z,17.27
2023-04-14T16:40:07.436Z,17.23
2023-04-14T16:42:37.875Z,17.16
2023-04-14T16:45:09.604Z,17.08
2023-04-14T16:47:37.908Z,16.99
2023-04-14T16:50:07.261Z,16.93
2023-04-14T16:52:36.089Z,16.88
2023-04-14T16:55:04.376Z,16.82
2023-04-14T16:57:32.853Z,16.73
2023-04-14T17:00:01.347Z,16.62
2023-04-14T17:02:31.191Z,16.52
2023-04-14T17:05:00.337Z,16.44
2023-04-14T17:07:28.595Z,16.37
2023-04-14T17:09:57.015Z,16.28
2023-04-14T17:12:25.054Z,16.25
2023-04-14T17:14:53.393Z,16.22
2023-04-14T17:17:22.087Z,16.15
2023-04-14T17:19:52.818Z,16.10
2023-04-14T17:22:22.639Z,16.06
2023-04-14T17:24:52.422Z,16.01
2023-04-14T17:27:21.009Z,15.94
2023-04-14T17:29:49.533Z,15.89
2023-04-14T17:32:18.983Z,15.85
2023-04-14T17:34:49.315Z,15.82
2023-04-14T17:37:19.796Z,15.81
2023-04-14T17:39:49.394Z,15.79
2023-04-14T17:42:18.023Z,15.78
2023-04-14T17:44:46.361Z,15.76
2023-04-14T17:47:15.828Z,15.68
2023-04-14T17:49:44.228Z,15.63
2023-04-14T17:52:12.887Z,15.55
2023-04-14T17:54:42.627Z,15.50
2023-04-14T17:57:13.406Z,15.44
2023-04-14T17:59:41.853Z,15.40
2023-04-14T18:02:14.063Z,15.36
2023-04-14T18:04:42.214Z,15.33
2023-04-14T18:07:10.388Z,15.29
2023-04-14T18:09:38.897Z,15.23
2023-04-14T18:12:08.655Z,15.16
2023-04-14T18:14:37.472Z,15.11
2023-04-14T18:17:06.634Z,15.10
2023-04-14T18:19:36.001Z,15.08
2023-04-14T18:22:04.811Z,15.11
2023-04-14T18:28:02.662Z,15.11
2023-04-14T18:29:54.630Z,15.14
2023-04-14T18:32:28.610Z,15.14
2023-04-14T18:35:00.289Z,15.13
2023-04-14T18:37:30.003Z,15.12
2023-04-14T18:39:59.081Z,15.08
2023-04-14T18:42:32.442Z,15.03
2023-04-14T18:45:17.602Z,15.00
2023-04-14T18:47:48.143Z,14.99
2023-04-14T18:50:16.186Z,14.94
2023-04-14T18:52:44.681Z,14.89
2023-04-14T18:55:13.627Z,14.86
2023-04-14T18:57:41.678Z,14.82
2023-04-14T19:00:13.533Z,14.78
2023-04-14T19:02:42.897Z,14.75
2023-04-14T19:05:11.838Z,14.75
2023-04-14T19:07:40.149Z,14.74
2023-04-14T19:10:09.311Z,14.71
2023-04-14T19:12:37.919Z,14.72
2023-04-14T19:15:06.907Z,14.70
2023-04-14T19:17:36.517Z,14.64
2023-04-14T19:20:05.434Z,14.56
2023-04-14T19:22:33.698Z,14.46
2023-04-14T19:25:01.912Z,14.36
2023-04-14T19:27:30.176Z,14.25
2023-04-14T19:29:58.714Z,14.18
2023-04-14T19:32:26.784Z,14.09
2023-04-14T19:34:58.264Z,14.11
2023-04-14T19:37:26.717Z,14.18
2023-04-14T19:39:54.720Z,14.23
2023-04-14T19:42:22.804Z,14.23
2023-04-14T19:44:50.892Z,14.23
2023-04-14T19:47:19.078Z,14.22
2023-04-14T19:49:47.180Z,14.23
2023-04-14T19:52:16.967Z,14.24
2023-04-14T19:54:45.860Z,14.26
2023-04-14T19:57:13.884Z,14.26
2023-04-14T19:59:42.630Z,14.28
2023-04-14T20:02:13.373Z,14.25
2023-04-14T20:04:41.774Z,14.21
2023-04-14T20:07:10.205Z,14.21
2023-04-14T20:09:44.808Z,14.22
2023-04-14T20:12:13.145Z,14.23
2023-04-14T20:14:41.542Z,14.23
2023-04-14T20:17:09.776Z,14.19
2023-04-14T20:19:38.000Z,14.18
2023-04-14T20:22:06.588Z,14.20
2023-04-14T20:24:35.042Z,14.18
2023-04-14T20:27:04.672Z,14.15
2023-04-14T20:29:33.463Z,14.13
2023-04-14T20:32:02.343Z,14.09
2023-04-14T20:34:30.404Z,14.03
2023-04-14T20:36:58.565Z,14.00
2023-04-14T20:39:26.815Z,13.98
2023-04-14T20:41:54.883Z,13.92
2023-04-14T20:44:24.584Z,13.85
2023-04-14T20:46:54.312Z,13.84
2023-04-14T20:49:22.744Z,13.72
2023-04-14T20:51:50.859Z,13.60
2023-04-14T20:54:18.925Z,13.48
2023-04-14T20:56:47.035Z,13.39
2023-04-14T20:59:15.155Z,13.34
2023-04-14T21:01:46.203Z,13.24
2023-04-14T21:04:14.528Z,13.18
2023-04-14T21:06:42.861Z,13.13
2023-04-14T21:09:11.150Z,13.18
2023-04-14T21:11:39.450Z,13.25
2023-04-14T21:15:42.362Z,13.28
2023-04-14T21:16:58.706Z,13.30
2023-04-14T21:19:28.441Z,13.27
2023-04-14T21:21:56.545Z,13.22
2023-04-14T21:24:25.225Z,13.20
2023-04-14T21:26:53.353Z,13.19
2023-04-14T21:29:21.503Z,13.21
2023-04-14T21:31:49.720Z,13.16
2023-04-14T21:34:19.465Z,13.10
2023-04-14T21:36:48.471Z,13.09
2023-04-14T21:39:17.626Z,13.10
2023-04-14T21:41:45.721Z,13.09
2023-04-14T21:44:15.677Z,13.09
2023-04-14T21:46:43.832Z,13.03
2023-04-14T21:49:11.913Z,13.02
2023-04-14T21:51:41.763Z,13.00
2023-04-14T21:54:09.821Z,12.95
2023-04-14T21:56:37.946Z,12.90
2023-04-14T21:59:06.641Z,12.91
2023-04-14T22:01:34.850Z,12.96
2023-04-14T22:04:03.250Z,13.01
2023-04-14T22:06:31.404Z,13.02
2023-04-14T22:09:01.427Z,12.99
2023-04-14T22:11:30.931Z,12.99
2023-04-14T22:13:59.730Z,12.99
2023-04-14T22:16:28.807Z,12.98
2023-04-14T22:18:57.460Z,12.90
2023-04-14T22:21:25.728Z,12.83
2023-04-14T22:23:53.925Z,12.79
2023-04-14T22:26:23.891Z,12.77
2023-04-14T22:28:52.875Z,12.76
2023-04-14T22:31:21.498Z,12.76
2023-04-14T22:33:49.641Z,12.75
2023-04-14T22:36:18.022Z,12.74
2023-04-14T22:38:48.460Z,12.74
2023-04-14T22:41:16.958Z,12.75
2023-04-14T22:43:46.486Z,12.76
2023-04-14T22:46:15.272Z,12.77
2023-04-14T22:48:43.477Z,12.79
2023-04-14T22:51:11.793Z,12.81
2023-04-14T22:53:40.025Z,12.81
2023-04-14T22:56:08.648Z,12.83
2023-04-14T22:58:39.416Z,12.86
2023-04-14T23:01:21.139Z,12.87
2023-04-14T23:03:52.564Z,12.87
2023-04-14T23:06:21.077Z,12.88
2023-04-14T23:08:49.760Z,12.89
2023-04-14T23:11:20.915Z,12.88
2023-04-14T23:13:50.357Z,12.88
2023-04-14T23:16:20.783Z,12.86
2023-04-14T23:18:52.075Z,12.85
2023-04-14T23:21:20.830Z,12.84
2023-04-14T23:23:48.905Z,12.84
2023-04-14T23:26:17.412Z,12.81
2023-04-14T23:28:46.519Z,12.80
2023-04-14T23:31:14.743Z,12.75
2023-04-14T23:33:45.393Z,12.68
2023-04-14T23:36:14.277Z,12.68
2023-04-14T23:38:42.449Z,12.68
2023-04-14T23:41:10.658Z,12.67
2023-04-14T23:43:39.155Z,12.68
2023-04-14T23:46:07.421Z,12.70
2023-04-14T23:48:35.532Z,12.68
2023-04-14T23:51:18.016Z,12.69
2023-04-14T23:53:50.321Z,12.68
2023-04-14T23:56:18.501Z,12.67
2023-04-14T23:58:47.180Z,12.68
